Time;durP1;ratioP1;P1;durP2;ratioP2;P2;SDS_P1;SDS_P2;PMS_P1;PMS_P2;Temp;Humidity;BMP_temperature;BMP_pressure;BME280_temperature;BME280_humidity;BME280_pressure;Samples;Min_cycle;Max_cycle;Signal;HPM_P1;HPM_P2
2022/07/11 00:02:19;;;;;;;1.42;0.80;;;18.20;74.60;;;;;;5050789;28;20053;-71
2022/07/11 00:04:46;;;;;;;2.75;0.98;;;18.10;74.70;;;;;;5059690;28;20080;-69
2022/07/11 00:07:14;;;;;;;2.28;0.85;;;18.10;74.70;;;;;;5061984;28;20056;-69
2022/07/11 00:09:41;;;;;;;2.67;1.20;;;18.10;74.80;;;;;;5053808;28;20049;-71
2022/07/11 00:12:09;;;;;;;2.03;0.98;;;18.10;74.90;;;;;;5061333;28;20475;-71
2022/07/11 00:14:39;;;;;;;1.25;0.88;;;18.10;74.90;;;;;;5060902;28;20056;-69
2022/07/11 00:17:07;;;;;;;1.98;1.00;;;18.10;75.00;;;;;;5059252;28;20130;-70
2022/07/11 00:19:36;;;;;;;1.52;1.00;;;18.10;75.10;;;;;;5058812;28;20057;-69
2022/07/11 00:22:03;;;;;;;2.10;1.00;;;18.10;75.20;;;;;;5060980;28;20093;-69
2022/07/11 00:24:30;;;;;;;1.48;0.90;;;18.10;75.20;;;;;;5060158;28;20466;-71
2022/07/11 00:26:58;;;;;;;1.77;0.90;;;18.10;75.30;;;;;;5060024;28;20045;-70
2022/07/11 00:29:25;;;;;;;1.65;1.00;;;18.00;75.50;;;;;;5058451;28;20542;-69
2022/07/11 00:31:52;;;;;;;2.63;1.13;;;18.10;75.30;;;;;;5059329;28;20052;-70
2022/07/11 00:34:19;;;;;;;1.98;0.93;;;18.00;75.50;;;;;;5058984;28;20558;-69
2022/07/11 00:36:47;;;;;;;1.63;0.88;;;18.00;75.50;;;;;;5057538;28;20065;-67
2022/07/11 00:39:14;;;;;;;2.55;1.10;;;18.00;75.60;;;;;;5057193;28;20045;-70
2022/07/11 00:41:42;;;;;;;2.58;1.30;;;17.90;75.60;;;;;;5056546;28;20132;-72
2022/07/11 00:44:08;;;;;;;1.60;0.85;;;18.00;75.60;;;;;;5053994;28;20463;-70
2022/07/11 00:46:35;;;;;;;1.95;1.00;;;18.00;75.60;;;;;;5055761;28;20095;-70
2022/07/11 00:49:03;;;;;;;1.15;0.77;;;18.00;75.60;;;;;;5054793;28;20045;-71
2022/07/11 00:51:31;;;;;;;3.70;1.10;;;18.00;75.60;;;;;;5056433;28;20048;-68
2022/07/11 00:54:00;;;;;;;2.40;0.88;;;18.00;75.60;;;;;;5054138;28;20044;-72
2022/07/11 00:56:30;;;;;;;1.63;0.90;;;18.00;75.70;;;;;;5055174;28;20051;-70
2022/07/11 00:58:58;;;;;;;2.23;1.10;;;17.90;75.70;;;;;;5046222;28;20088;-71
2022/07/11 01:01:25;;;;;;;1.90;0.98;;;17.90;75.80;;;;;;5036618;28;21237;-69
2022/07/11 01:03:52;;;;;;;1.65;1.05;;;17.90;76.00;;;;;;5055500;28;20041;-71
2022/07/11 01:06:19;;;;;;;1.67;1.00;;;17.90;76.00;;;;;;5057126;28;20056;-71
2022/07/11 01:08:46;;;;;;;1.98;1.00;;;17.90;76.00;;;;;;5056442;28;20049;-70
2022/07/11 01:11:16;;;;;;;1.63;0.93;;;17.90;76.00;;;;;;5056558;28;20132;-71
2022/07/11 01:13:44;;;;;;;1.83;1.00;;;17.90;76.10;;;;;;5055830;28;20394;-70
2022/07/11 01:16:13;;;;;;;2.20;1.08;;;17.90;76.00;;;;;;5057917;28;20044;-71
2022/07/11 01:18:45;;;;;;;1.38;0.90;;;17.90;76.00;;;;;;5056338;28;20041;-69
2022/07/11 01:21:21;;;;;;;1.85;1.00;;;17.90;76.00;;;;;;5057532;28;20113;-68
2022/07/11 01:23:51;;;;;;;3.50;1.00;;;17.90;76.00;;;;;;5056497;28;20076;-71
2022/07/11 01:26:18;;;;;;;;;;;17.90;76.20;;;;;;5057804;28;20094;-71
2022/07/11 01:28:46;;;;;;;2.38;1.40;;;17.90;76.20;;;;;;5055594;28;19978;-70
2022/07/11 01:31:13;;;;;;;1.80;0.93;;;17.80;76.20;;;;;;5056710;28;20985;-69
2022/07/11 01:33:41;;;;;;;1.17;0.82;;;17.80;76.30;;;;;;5052616;28;20053;-71
2022/07/11 01:36:08;;;;;;;1.35;0.80;;;17.80;76.30;;;;;;5048604;28;20064;-71
2022/07/11 01:38:35;;;;;;;1.55;0.93;;;17.80;76.40;;;;;;5042383;28;20041;-71
2022/07/11 01:41:04;;;;;;;1.58;0.95;;;17.80;76.30;;;;;;5050079;28;20041;-68
2022/07/11 01:43:31;;;;;;;1.92;1.02;;;17.80;76.40;;;;;;5045303;28;20095;-70
2022/07/11 01:45:58;;;;;;;1.75;0.88;;;17.80;76.50;;;;;;5045416;28;20528;-70
2022/07/11 01:48:25;;;;;;;1.92;1.10;;;17.80;76.50;;;;;;5046204;28;20048;-70
2022/07/11 01:50:52;;;;;;;1.77;0.90;;;17.80;76.60;;;;;;5049626;28;20050;-71
2022/07/11 01:53:19;;;;;;;1.90;1.20;;;17.80;76.40;;;;;;5057341;28;20049;-71
2022/07/11 01:55:46;;;;;;;2.53;1.42;;;17.80;76.60;;;;;;5057163;28;20040;-71
2022/07/11 01:58:14;;;;;;;1.90;1.20;;;17.80;76.60;;;;;;5059206;28;20053;-71
2022/07/11 02:00:42;;;;;;;4.03;1.10;;;17.90;76.50;;;;;;5051941;28;20040;-71
2022/07/11 02:03:09;;;;;;;1.85;0.85;;;17.80;76.60;;;;;;5048420;28;20057;-70
2022/07/11 02:05:38;;;;;;;1.55;0.80;;;17.80;76.60;;;;;;5047592;28;20049;-70
2022/07/11 02:08:13;;;;;;;1.30;0.70;;;17.80;76.50;;;;;;5044564;28;20508;-70
2022/07/11 02:10:41;;;;;;;1.60;0.90;;;17.90;76.30;;;;;;5047715;28;20498;-69
2022/07/11 02:13:09;;;;;;;2.03;0.73;;;17.80;76.60;;;;;;5041609;28;20044;-71
2022/07/11 02:15:38;;;;;;;1.30;0.80;;;17.90;76.70;;;;;;5043536;28;20044;-69
2022/07/11 02:18:05;;;;;;;1.73;0.95;;;17.90;76.90;;;;;;5047228;28;20136;-70
2022/07/11 02:20:32;;;;;;;1.55;0.80;;;17.80;77.00;;;;;;5056526;28;20055;-69
2022/07/11 02:22:59;;;;;;;1.77;0.88;;;17.80;77.20;;;;;;5054693;28;20123;-70
2022/07/11 02:25:26;;;;;;;2.67;0.82;;;17.70;77.40;;;;;;5050389;28;20478;-70
2022/07/11 02:27:53;;;;;;;1.50;0.90;;;17.70;77.40;;;;;;5053718;28;20055;-69
2022/07/11 02:30:20;;;;;;;1.20;0.77;;;17.70;77.40;;;;;;5050245;28;20049;-70
2022/07/11 02:32:49;;;;;;;1.30;0.90;;;17.80;77.40;;;;;;5047199;28;20042;-70
2022/07/11 02:35:16;;;;;;;2.38;0.90;;;17.70;77.50;;;;;;5045823;28;20048;-70
2022/07/11 02:37:43;;;;;;;1.38;0.70;;;17.70;77.50;;;;;;5041543;28;20044;-69
2022/07/11 02:40:11;;;;;;;1.35;0.93;;;17.70;77.50;;;;;;5043077;28;20053;-71
2022/07/11 02:42:37;;;;;;;1.23;0.85;;;17.70;77.60;;;;;;5046562;28;20041;-69
2022/07/11 02:45:07;;;;;;;2.35;0.88;;;17.70;77.60;;;;;;5042807;28;20459;-70
2022/07/11 02:47:35;;;;;;;;;;;17.70;77.70;;;;;;5045881;28;20049;-70
2022/07/11 02:50:03;;;;;;;2.03;0.70;;;17.70;77.70;;;;;;5048589;28;19924;-71
2022/07/11 02:52:30;;;;;;;1.25;0.80;;;17.70;77.60;;;;;;5055641;28;20051;-68
2022/07/11 02:54:57;;;;;;;2.65;0.80;;;17.70;77.60;;;;;;5053185;28;20052;-71
2022/07/11 02:57:24;;;;;;;1.77;1.00;;;17.70;78.10;;;;;;5051810;28;20054;-69
2022/07/11 02:59:51;;;;;;;1.10;0.80;;;17.60;78.10;;;;;;5053251;28;20037;-70
2022/07/11 03:02:18;;;;;;;1.25;0.90;;;17.60;78.20;;;;;;5041730;28;20081;-70
2022/07/11 03:04:45;;;;;;;1.88;0.93;;;17.70;78.10;;;;;;5062079;28;20414;-70
2022/07/11 03:07:13;;;;;;;2.78;1.35;;;17.60;78.20;;;;;;5051546;28;20049;-71
2022/07/11 03:09:40;;;;;;;2.05;0.70;;;17.60;78.20;;;;;;5047994;28;20045;-69
2022/07/11 03:12:08;;;;;;;1.42;0.90;;;17.60;78.30;;;;;;5048798;28;20048;-69
2022/07/11 03:14:34;;;;;;;2.03;0.88;;;17.60;78.30;;;;;;5051085;28;20048;-71
2022/07/11 03:17:01;;;;;;;2.60;1.02;;;17.60;78.30;;;;;;5046664;28;20052;-70
2022/07/11 03:19:28;;;;;;;5.43;1.30;;;17.70;78.20;;;;;;5048537;28;20046;-72
2022/07/11 03:21:55;;;;;;;3.03;1.10;;;17.60;78.30;;;;;;5048574;28;20056;-72
2022/07/11 03:24:23;;;;;;;1.27;0.90;;;17.60;78.30;;;;;;5054769;28;20469;-70
2022/07/11 03:26:50;;;;;;;2.33;1.35;;;17.60;78.40;;;;;;5057914;28;20044;-70
2022/07/11 03:29:17;;;;;;;1.65;0.98;;;17.60;78.30;;;;;;5060500;28;20095;-71
2022/07/11 03:31:44;;;;;;;2.53;1.30;;;17.60;78.30;;;;;;5051627;28;20050;-71
2022/07/11 03:34:11;;;;;;;2.20;1.30;;;17.60;78.30;;;;;;5056429;28;20486;-71
2022/07/11 03:36:38;;;;;;;2.05;1.17;;;17.60;78.30;;;;;;5060692;28;20127;-71
2022/07/11 03:39:05;;;;;;;2.30;1.55;;;17.60;78.50;;;;;;5050042;28;20056;-70
2022/07/11 03:41:34;;;;;;;2.58;1.52;;;17.60;78.40;;;;;;5049863;28;20053;-71
2022/07/11 03:44:01;;;;;;;1.70;1.10;;;17.50;78.40;;;;;;5050719;28;20048;-70
2022/07/11 03:46:30;;;;;;;2.15;1.20;;;17.60;78.40;;;;;;5045271;28;20393;-69
2022/07/11 03:48:58;;;;;;;2.60;1.20;;;17.60;78.50;;;;;;5047998;28;20044;-69
2022/07/11 03:51:25;;;;;;;2.00;1.40;;;17.60;78.20;;;;;;5049498;28;20051;-69
2022/07/11 03:53:52;;;;;;;2.05;1.10;;;17.60;78.30;;;;;;5050366;28;21009;-70
2022/07/11 03:56:22;;;;;;;3.25;1.60;;;17.50;78.40;;;;;;5049886;28;20049;-70
2022/07/11 03:58:50;;;;;;;;;;;17.50;78.60;;;;;;5054503;28;20757;-70
2022/07/11 04:01:18;;;;;;;2.05;1.10;;;17.50;78.50;;;;;;5050762;28;19964;-68
2022/07/11 04:03:45;;;;;;;1.85;1.30;;;17.50;78.60;;;;;;5056189;28;20363;-70
2022/07/11 04:06:13;;;;;;;2.72;1.52;;;17.50;78.80;;;;;;5057781;28;20057;-71
2022/07/11 04:08:40;;;;;;;2.45;1.42;;;17.40;78.60;;;;;;5057484;28;20044;-71
2022/07/11 04:11:07;;;;;;;1.70;1.00;;;17.50;78.80;;;;;;5048439;28;20052;-69
2022/07/11 04:13:34;;;;;;;2.28;1.33;;;17.50;78.90;;;;;;5045255;28;20071;-70
2022/07/11 04:16:03;;;;;;;3.03;1.42;;;17.50;78.90;;;;;;5049929;28;20049;-69
2022/07/11 04:18:30;;;;;;;3.35;1.20;;;17.50;79.00;;;;;;5047661;28;20033;-70
2022/07/11 04:20:57;;;;;;;2.97;1.20;;;17.50;79.00;;;;;;5046643;28;20053;-71
2022/07/11 04:23:24;;;;;;;2.58;1.40;;;17.50;79.00;;;;;;5046703;28;20041;-70
2022/07/11 04:25:51;;;;;;;4.80;1.40;;;17.50;78.90;;;;;;5046841;28;20044;-71
2022/07/11 04:28:17;;;;;;;3.35;1.33;;;17.50;78.90;;;;;;5055086;28;20052;-72
2022/07/11 04:30:44;;;;;;;2.30;1.30;;;17.50;78.90;;;;;;5054429;28;20063;-71
2022/07/11 04:33:13;;;;;;;3.28;1.40;;;17.50;78.90;;;;;;5057371;28;20468;-70
2022/07/11 04:35:40;;;;;;;2.53;1.42;;;17.50;78.90;;;;;;5056609;28;20044;-71
2022/07/11 04:38:07;;;;;;;1.65;1.27;;;17.50;78.90;;;;;;5055517;28;20056;-73
2022/07/11 04:40:34;;;;;;;2.67;1.52;;;17.50;78.90;;;;;;5053868;28;20052;-70
2022/07/11 04:43:01;;;;;;;2.20;1.33;;;17.60;78.90;;;;;;5056058;28;20588;-72
2022/07/11 04:45:27;;;;;;;2.72;1.60;;;17.60;78.90;;;;;;5058688;28;20813;-70
2022/07/11 04:47:54;;;;;;;2.50;1.40;;;17.60;78.80;;;;;;5044461;28;20421;-71
2022/07/11 04:50:23;;;;;;;1.58;1.10;;;17.60;78.70;;;;;;5049091;28;20091;-70
2022/07/11 04:52:50;;;;;;;3.28;1.45;;;17.60;78.80;;;;;;5048899;28;20045;-72
2022/07/11 04:55:17;;;;;;;2.75;1.45;;;17.60;78.70;;;;;;5048539;28;20041;-71
2022/07/11 04:57:44;;;;;;;2.05;1.27;;;17.60;78.70;;;;;;5048252;28;20064;-72
2022/07/11 05:00:12;;;;;;;2.45;1.40;;;17.70;78.60;;;;;;5047693;28;20511;-70
2022/07/11 05:02:42;;;;;;;3.60;1.60;;;17.60;78.70;;;;;;5048657;28;20053;-70
2022/07/11 05:05:09;;;;;;;2.42;1.50;;;17.70;78.60;;;;;;5057707;28;20048;-71
2022/07/11 05:07:37;;;;;;;2.95;1.42;;;17.70;78.70;;;;;;5060141;28;20521;-71
2022/07/11 05:10:05;;;;;;;2.35;1.42;;;17.60;78.70;;;;;;5058165;28;20387;-70
2022/07/11 05:12:32;;;;;;;3.08;1.58;;;17.60;78.70;;;;;;5051866;28;20064;-71
2022/07/11 05:14:59;;;;;;;2.97;2.05;;;17.70;78.70;;;;;;5072118;28;20441;-71
2022/07/11 05:17:26;;;;;;;2.25;1.30;;;17.70;78.70;;;;;;5049344;28;20455;-70
2022/07/11 05:19:53;;;;;;;3.25;1.70;;;17.70;78.70;;;;;;5047324;28;20052;-70
2022/07/11 05:22:20;;;;;;;3.45;1.50;;;17.70;78.40;;;;;;5049029;28;20041;-72
2022/07/11 05:24:48;;;;;;;3.20;1.58;;;17.80;78.20;;;;;;5049648;28;20045;-71
2022/07/11 05:27:15;;;;;;;2.92;1.48;;;17.80;77.90;;;;;;5048334;28;20057;-71
2022/07/11 05:29:42;;;;;;;2.72;1.45;;;17.80;78.30;;;;;;5046409;28;20047;-70
2022/07/11 05:32:09;;;;;;;3.03;1.38;;;17.80;78.00;;;;;;5043686;28;20051;-68
2022/07/11 05:34:36;;;;;;;3.03;1.55;;;17.80;78.10;;;;;;5059311;28;20457;-70
2022/07/11 05:37:03;;;;;;;3.47;1.67;;;17.80;78.00;;;;;;5055755;28;20045;-71
2022/07/11 05:39:30;;;;;;;2.88;1.30;;;17.80;78.30;;;;;;5054415;28;20445;-69
2022/07/11 05:41:58;;;;;;;2.85;1.60;;;17.80;78.00;;;;;;5052801;28;20474;-72
2022/07/11 05:44:25;;;;;;;5.10;1.98;;;17.90;77.90;;;;;;5045680;28;20056;-71
2022/07/11 05:46:52;;;;;;;2.88;1.48;;;17.90;78.10;;;;;;5045944;28;20048;-71
2022/07/11 05:49:19;;;;;;;3.17;1.40;;;17.90;78.10;;;;;;5046792;28;20500;-71
2022/07/11 05:51:46;;;;;;;2.42;1.58;;;17.90;78.10;;;;;;5043880;28;20843;-69
2022/07/11 05:54:13;;;;;;;2.53;1.77;;;17.90;78.00;;;;;;5054412;28;20057;-70
2022/07/11 05:56:40;;;;;;;3.38;1.80;;;17.90;78.10;;;;;;5057476;28;20056;-69
2022/07/11 05:59:08;;;;;;;3.42;1.75;;;18.00;78.00;;;;;;5055702;28;20048;-70
2022/07/11 06:01:36;;;;;;;3.28;1.77;;;18.00;77.60;;;;;;5049409;28;20433;-70
2022/07/11 06:04:03;;;;;;;3.65;1.52;;;18.10;77.90;;;;;;5057567;28;20406;-71
2022/07/11 06:06:29;;;;;;;2.90;1.73;;;18.10;77.60;;;;;;5054401;28;20053;-71
2022/07/11 06:08:56;;;;;;;3.67;1.88;;;18.10;77.50;;;;;;5054153;28;20056;-71
2022/07/11 06:11:23;;;;;;;3.65;2.10;;;18.10;77.50;;;;;;5050450;28;20057;-70
2022/07/11 06:13:50;;;;;;;3.15;1.67;;;18.10;77.80;;;;;;5054748;28;20045;-71
2022/07/11 06:16:19;;;;;;;4.78;2.22;;;18.10;77.70;;;;;;5048603;28;20419;-70
2022/07/11 06:18:46;;;;;;;4.78;2.03;;;18.10;77.90;;;;;;5048257;28;20045;-72
2022/07/11 06:21:13;;;;;;;3.50;1.65;;;18.10;77.70;;;;;;5049090;28;20052;-71
2022/07/11 06:23:42;;;;;;;3.28;2.08;;;18.10;77.80;;;;;;5044564;28;20386;-72
2022/07/11 06:26:11;;;;;;;7.50;1.73;;;18.10;77.80;;;;;;5048220;28;20048;-71
2022/07/11 06:28:39;;;;;;;3.50;2.00;;;18.10;77.60;;;;;;5046989;28;20048;-72
2022/07/11 06:31:06;;;;;;;3.80;2.17;;;18.10;77.70;;;;;;5052584;28;20482;-72
2022/07/11 06:33:35;;;;;;;4.28;2.15;;;18.10;77.40;;;;;;5054311;28;20052;-71
2022/07/11 06:36:02;;;;;;;4.82;2.17;;;18.20;77.30;;;;;;5053189;28;20053;-70
2022/07/11 06:38:29;;;;;;;4.57;2.28;;;18.20;77.20;;;;;;5053277;28;20063;-72
2022/07/11 06:40:57;;;;;;;3.60;1.70;;;18.20;77.60;;;;;;5055061;28;20049;-72
2022/07/11 06:43:24;;;;;;;2.95;2.00;;;18.20;77.60;;;;;;5053641;28;20430;-70
2022/07/11 06:45:51;;;;;;;4.00;2.10;;;18.20;77.60;;;;;;5044322;28;20044;-72
2022/07/11 06:48:20;;;;;;;4.20;2.00;;;18.20;77.30;;;;;;5045157;28;20045;-72
2022/07/11 06:50:49;;;;;;;3.95;2.15;;;18.20;77.50;;;;;;5048011;28;20045;-71
2022/07/11 06:53:17;;;;;;;4.13;2.38;;;18.20;77.40;;;;;;5046327;28;20052;-71
2022/07/11 06:55:44;;;;;;;6.63;2.55;;;18.20;77.30;;;;;;5046734;28;20138;-71
2022/07/11 06:58:11;;;;;;;4.38;2.25;;;18.20;76.90;;;;;;5046745;28;20057;-72
2022/07/11 07:00:37;;;;;;;5.03;2.08;;;18.30;76.90;;;;;;5043784;28;20041;-71
2022/07/11 07:03:04;;;;;;;4.10;2.08;;;18.40;76.90;;;;;;5057058;28;20040;-71
2022/07/11 07:05:31;;;;;;;3.13;1.90;;;18.40;76.70;;;;;;5056075;28;20045;-71
2022/07/11 07:08:00;;;;;;;5.38;2.40;;;18.40;76.90;;;;;;5051726;28;20127;-71
2022/07/11 07:10:28;;;;;;;4.68;1.90;;;18.50;76.90;;;;;;5050776;28;20512;-69
2022/07/11 07:12:55;;;;;;;3.22;1.77;;;18.60;76.60;;;;;;5047602;28;20049;-69
2022/07/11 07:15:21;;;;;;;4.55;2.00;;;18.60;76.50;;;;;;5044478;28;20046;-70
2022/07/11 07:17:48;;;;;;;3.88;1.83;;;18.80;76.50;;;;;;5046542;28;20063;-70
2022/07/11 07:20:15;;;;;;;3.95;2.28;;;18.90;76.30;;;;;;5048102;28;20045;-72
2022/07/11 07:22:42;;;;;;;2.25;1.60;;;19.00;76.30;;;;;;5051658;28;20113;-72
2022/07/11 07:25:11;;;;;;;4.43;1.90;;;19.10;76.00;;;;;;5047313;28;20078;-72
2022/07/11 07:27:38;;;;;;;3.78;1.98;;;19.20;75.90;;;;;;5042380;28;20194;-72
2022/07/11 07:30:05;;;;;;;4.38;1.98;;;19.30;75.80;;;;;;5046172;28;20459;-70
2022/07/11 07:32:33;;;;;;;4.57;1.77;;;19.40;75.70;;;;;;5051856;28;20052;-72
2022/07/11 07:35:00;;;;;;;2.22;1.52;;;19.50;75.10;;;;;;5050802;28;20051;-71
2022/07/11 07:37:27;;;;;;;3.22;1.95;;;19.50;75.00;;;;;;5052575;28;20131;-72
2022/07/11 07:39:54;;;;;;;3.15;1.95;;;19.60;74.70;;;;;;5048332;28;20103;-70
2022/07/11 07:42:22;;;;;;;4.05;1.70;;;19.60;74.70;;;;;;5052428;28;20069;-70
2022/07/11 07:44:50;;;;;;;3.38;1.80;;;19.70;74.40;;;;;;5049342;28;20128;-70
2022/07/11 07:47:16;;;;;;;4.25;1.80;;;19.80;74.30;;;;;;5044200;28;20068;-71
2022/07/11 07:49:43;;;;;;;3.03;1.70;;;19.90;74.00;;;;;;5050420;28;20129;-71
2022/07/11 07:52:10;;;;;;;4.30;1.90;;;19.90;74.00;;;;;;5051074;28;20056;-72
2022/07/11 07:54:38;;;;;;;3.42;1.75;;;19.90;73.40;;;;;;5046684;28;20041;-72
2022/07/11 07:57:05;;;;;;;3.03;1.63;;;19.90;73.40;;;;;;5046999;28;20065;-72
2022/07/11 07:59:34;;;;;;;4.78;1.48;;;20.00;73.10;;;;;;5048624;28;20122;-72
2022/07/11 08:02:00;;;;;;;2.75;1.60;;;19.90;73.00;;;;;;5051498;28;20057;-63
2022/07/11 08:04:27;;;;;;;4.03;1.70;;;19.90;72.90;;;;;;5058761;28;20491;-62
2022/07/11 08:06:54;;;;;;;3.33;1.75;;;20.00;72.80;;;;;;5053842;28;20063;-66
2022/07/11 08:09:21;;;;;;;3.17;1.45;;;20.00;72.50;;;;;;5057188;28;20843;-64
2022/07/11 08:11:49;;;;;;;4.93;1.48;;;20.00;71.80;;;;;;5055564;28;20604;-63
2022/07/11 08:14:16;;;;;;;2.03;1.30;;;20.10;72.20;;;;;;5058907;28;20059;-63
2022/07/11 08:16:44;;;;;;;3.50;1.75;;;20.10;71.90;;;;;;5050223;28;20045;-64
2022/07/11 08:19:11;;;;;;;2.92;1.77;;;20.10;71.70;;;;;;5052307;28;20040;-62
2022/07/11 08:21:39;;;;;;;3.97;1.40;;;20.10;71.30;;;;;;5049351;28;20110;-63
2022/07/11 08:24:06;;;;;;;3.63;1.38;;;20.20;71.30;;;;;;5050953;28;20055;-64
2022/07/11 08:26:34;;;;;;;3.40;1.50;;;20.20;71.30;;;;;;5048577;28;20383;-63
2022/07/11 08:29:01;;;;;;;4.50;1.98;;;20.20;70.80;;;;;;5045611;28;20045;-63
2022/07/11 08:31:28;;;;;;;2.60;1.45;;;20.20;70.40;;;;;;5044208;28;20111;-63
2022/07/11 08:33:58;;;;;;;2.95;1.23;;;20.20;70.40;;;;;;5050159;28;20040;-64
2022/07/11 08:36:25;;;;;;;;;;;20.20;70.40;;;;;;5054434;28;20048;-62
2022/07/11 08:38:52;;;;;;;3.30;1.25;;;20.30;70.10;;;;;;5047144;28;19936;-63
2022/07/11 08:41:19;;;;;;;2.00;1.23;;;20.30;70.20;;;;;;5058822;28;20148;-65
2022/07/11 08:43:47;;;;;;;5.47;1.20;;;20.30;70.30;;;;;;5055738;28;20138;-65
2022/07/11 08:46:15;;;;;;;3.17;1.23;;;20.30;70.10;;;;;;5051640;28;20049;-64
2022/07/11 08:48:42;;;;;;;4.90;1.42;;;20.30;70.10;;;;;;5046733;28;20114;-64
2022/07/11 08:51:12;;;;;;;3.53;1.63;;;20.40;70.10;;;;;;5055154;28;20702;-64
2022/07/11 08:53:43;;;;;;;2.15;1.13;;;20.40;69.70;;;;;;5058052;28;20143;-65
2022/07/11 08:56:15;;;;;;;2.67;1.20;;;20.40;69.50;;;;;;5055679;28;20056;-66
2022/07/11 08:58:44;;;;;;;2.50;1.20;;;20.30;69.40;;;;;;5051165;28;20450;-65
2022/07/11 09:01:12;;;;;;;1.85;1.10;;;20.30;69.60;;;;;;5052894;28;20128;-65
2022/07/11 09:03:39;;;;;;;2.00;1.20;;;20.40;69.40;;;;;;5048564;28;20096;-64
2022/07/11 09:06:06;;;;;;;1.30;0.90;;;20.30;69.60;;;;;;5044735;28;20041;-63
2022/07/11 09:08:35;;;;;;;3.25;1.23;;;20.30;69.50;;;;;;5045791;28;20448;-66
2022/07/11 09:11:04;;;;;;;2.03;1.17;;;20.30;69.70;;;;;;5046317;28;20052;-64
2022/07/11 09:13:31;;;;;;;3.70;1.20;;;20.30;69.70;;;;;;5048389;28;20041;-64
2022/07/11 09:16:02;;;;;;;1.98;1.20;;;20.30;69.70;;;;;;5044895;28;20052;-63
2022/07/11 09:18:34;;;;;;;1.77;0.82;;;20.40;69.70;;;;;;5048040;28;20524;-63
2022/07/11 09:26:36;;;;;;;6.55;1.48;;;20.40;69.50;;;;;;5052638;28;20109;-64
2022/07/11 09:29:08;;;;;;;1.17;0.70;;;20.40;69.60;;;;;;5056595;28;20047;-66
2022/07/11 09:31:36;;;;;;;1.42;1.15;;;20.50;69.70;;;;;;5050754;28;20094;-63
2022/07/11 09:34:06;;;;;;;2.33;0.93;;;20.60;69.90;;;;;;5046176;28;20040;-65
2022/07/11 09:36:41;;;;;;;0.77;0.43;;;20.60;70.10;;;;;;5050984;28;20090;-64
2022/07/11 09:39:12;;;;;;;1.63;0.80;;;20.70;69.90;;;;;;5048355;28;20047;-64
2022/07/11 09:41:39;;;;;;;1.42;0.85;;;20.80;69.70;;;;;;5048079;28;20498;-64
2022/07/11 09:44:08;;;;;;;1.45;0.60;;;20.90;69.60;;;;;;5049005;28;20054;-64
2022/07/11 09:46:36;;;;;;;1.40;0.80;;;20.90;69.80;;;;;;5048848;28;20053;-64
2022/07/11 09:49:03;;;;;;;1.00;0.52;;;21.00;69.90;;;;;;5044477;28;20624;-65
2022/07/11 09:51:32;;;;;;;3.88;0.98;;;21.10;69.70;;;;;;5053868;28;20059;-63
2022/07/11 09:54:00;;;;;;;2.88;1.35;;;21.10;69.50;;;;;;5052679;28;20128;-63
2022/07/11 09:56:34;;;;;;;3.75;0.63;;;21.10;69.30;;;;;;5054414;28;20045;-64
2022/07/11 09:59:03;;;;;;;2.70;0.75;;;21.20;69.10;;;;;;5056391;28;20116;-63
2022/07/11 10:01:30;;;;;;;1.17;0.75;;;21.20;68.90;;;;;;5052864;28;20051;-62
2022/07/11 10:03:58;;;;;;;2.78;0.93;;;21.30;68.50;;;;;;5055996;28;20159;-63
2022/07/11 10:06:25;;;;;;;1.23;0.70;;;21.30;68.50;;;;;;5043347;28;20037;-64
2022/07/11 10:08:53;;;;;;;2.03;0.88;;;21.40;68.20;;;;;;5044350;28;20132;-63
2022/07/11 10:11:21;;;;;;;2.55;1.05;;;21.40;68.00;;;;;;5049206;28;20053;-65
2022/07/11 10:13:50;;;;;;;2.00;0.80;;;21.50;67.80;;;;;;5044686;28;20052;-65
2022/07/11 10:16:27;;;;;;;1.25;0.60;;;21.60;67.30;;;;;;5048158;28;20049;-63
2022/07/11 10:19:08;;;;;;;5.05;0.80;;;21.80;67.00;;;;;;5049264;28;20044;-64
2022/07/11 10:21:40;;;;;;;1.75;0.80;;;21.90;66.60;;;;;;5047932;28;20150;-63
2022/07/11 10:24:22;;;;;;;1.40;0.70;;;22.10;66.40;;;;;;5050478;28;20047;-63
2022/07/11 10:26:57;;;;;;;1.63;0.70;;;22.10;65.80;;;;;;5052284;28;20047;-64
2022/07/11 10:29:32;;;;;;;4.18;1.85;;;22.30;65.50;;;;;;5056032;28;20051;-64
2022/07/11 10:32:07;;;;;;;8.50;4.13;;;22.50;64.90;;;;;;5045947;28;20410;-64
2022/07/11 10:34:34;;;;;;;7.22;3.10;;;22.60;64.50;;;;;;5052115;28;20140;-65
2022/07/11 10:37:02;;;;;;;6.10;2.50;;;22.60;64.50;;;;;;5053214;28;20049;-66
2022/07/11 10:39:29;;;;;;;5.93;2.92;;;22.60;63.90;;;;;;5047380;28;20486;-65
2022/07/11 10:41:57;;;;;;;8.27;3.20;;;22.60;63.20;;;;;;5047880;28;20067;-66
2022/07/11 10:44:27;;;;;;;6.45;3.50;;;22.60;63.30;;;;;;5045034;28;20071;-62
2022/07/11 10:46:54;;;;;;;5.38;2.42;;;22.50;63.30;;;;;;5043240;28;20131;-64
2022/07/11 10:49:37;;;;;;;3.75;1.80;;;22.40;62.90;;;;;;5040701;28;20661;-62
2022/07/11 10:52:06;;;;;;;2.67;1.42;;;22.30;62.50;;;;;;5046784;28;20041;-65
2022/07/11 10:54:51;;;;;;;4.25;1.17;;;22.30;62.60;;;;;;5043724;28;20049;-64
2022/07/11 10:57:23;;;;;;;1.45;0.70;;;22.20;61.80;;;;;;5055162;28;20060;-63
2022/07/11 11:00:03;;;;;;;1.88;0.80;;;22.10;61.60;;;;;;5054818;28;20048;-66
2022/07/11 11:02:31;;;;;;;1.48;0.63;;;22.10;61.60;;;;;;5049410;28;20078;-64
2022/07/11 11:04:59;;;;;;;1.42;0.70;;;22.10;61.80;;;;;;5051655;28;20057;-63
2022/07/11 11:07:35;;;;;;;0.82;0.50;;;22.10;61.50;;;;;;5051313;28;20049;-64
2022/07/11 11:10:04;;;;;;;1.77;0.50;;;22.00;61.50;;;;;;5055400;28;20052;-64
2022/07/11 11:12:51;;;;;;;;;;;21.90;62.10;;;;;;5057021;28;20045;-63
2022/07/11 11:15:35;;;;;;;1.23;0.52;;;21.90;62.30;;;;;;5045043;28;20014;-64
2022/07/11 11:18:36;;;;;;;2.22;0.60;;;21.90;62.70;;;;;;5041980;28;20045;-66
2022/07/11 11:21:20;;;;;;;1.17;0.50;;;21.80;62.90;;;;;;5046422;28;20129;-64
2022/07/11 11:24:07;;;;;;;1.23;0.70;;;21.80;63.40;;;;;;5051839;28;20044;-64
2022/07/11 11:26:53;;;;;;;0.80;0.55;;;21.80;63.50;;;;;;5049927;28;20506;-64
2022/07/11 11:29:25;;;;;;;1.52;0.60;;;21.80;63.80;;;;;;5048945;28;20053;-63
2022/07/11 11:31:56;;;;;;;0.88;0.50;;;21.70;64.20;;;;;;5055655;28;20051;-64
2022/07/11 11:34:23;;;;;;;1.35;0.70;;;21.80;63.80;;;;;;5057437;28;20058;-63
2022/07/11 11:36:56;;;;;;;0.95;0.60;;;21.80;64.10;;;;;;5060071;28;20045;-64
2022/07/11 11:39:25;;;;;;;2.28;0.75;;;21.80;64.00;;;;;;5058295;28;20406;-64
2022/07/11 11:41:52;;;;;;;2.03;0.60;;;21.90;64.20;;;;;;5051923;28;20526;-64
2022/07/11 11:44:19;;;;;;;1.67;0.50;;;21.90;64.10;;;;;;5052106;28;20128;-64
2022/07/11 11:46:46;;;;;;;2.03;0.60;;;22.00;64.00;;;;;;5048036;28;20068;-64
2022/07/11 11:49:14;;;;;;;1.80;0.40;;;22.10;63.90;;;;;;5048664;28;20056;-65
2022/07/11 11:51:43;;;;;;;0.73;0.60;;;22.10;63.60;;;;;;5047850;28;20072;-64
2022/07/11 11:54:11;;;;;;;1.77;0.80;;;22.20;63.50;;;;;;5051744;28;20475;-66
2022/07/11 11:56:40;;;;;;;0.80;0.50;;;22.30;63.40;;;;;;5050687;28;20044;-64
2022/07/11 11:59:09;;;;;;;1.00;0.45;;;22.40;63.10;;;;;;5047105;28;20053;-64
2022/07/11 12:01:37;;;;;;;;;;;22.50;63.00;;;;;;5055177;28;20049;-64
2022/07/11 12:04:05;;;;;;;1.88;0.50;;;22.60;62.50;;;;;;5056751;28;20278;-63
2022/07/11 12:06:35;;;;;;;0.90;0.50;;;22.70;62.50;;;;;;5062614;28;20037;-64
2022/07/11 12:09:03;;;;;;;0.90;0.40;;;22.80;62.10;;;;;;5057639;28;20455;-64
2022/07/11 12:11:31;;;;;;;1.03;0.53;;;22.90;61.70;;;;;;5058072;28;20048;-64
2022/07/11 12:13:58;;;;;;;2.00;0.70;;;23.00;61.80;;;;;;5055466;28;20542;-63
2022/07/11 12:16:42;;;;;;;1.55;0.75;;;22.90;61.90;;;;;;5059647;28;20068;-64
2022/07/11 12:19:11;;;;;;;3.15;0.63;;;22.90;61.60;;;;;;5059177;28;20099;-64
2022/07/11 12:21:41;;;;;;;1.92;0.65;;;22.80;61.50;;;;;;5058829;28;20139;-64
2022/07/11 12:24:12;;;;;;;1.50;0.95;;;22.70;62.10;;;;;;5061082;28;20045;-63
2022/07/11 12:26:41;;;;;;;1.60;0.70;;;22.60;61.60;;;;;;5056373;28;20053;-66
2022/07/11 12:29:16;;;;;;;1.17;0.60;;;22.60;61.90;;;;;;5073017;28;20051;-64
2022/07/11 12:31:47;;;;;;;1.85;0.77;;;22.60;61.90;;;;;;5059412;28;20052;-64
2022/07/11 12:34:17;;;;;;;1.35;0.55;;;22.60;61.70;;;;;;5069908;28;20158;-62
2022/07/11 12:36:46;;;;;;;1.33;0.75;;;22.70;61.80;;;;;;5054958;28;20055;-63
2022/07/11 12:39:24;;;;;;;5.20;1.50;;;22.70;61.70;;;;;;5057383;28;20379;-65
2022/07/11 12:41:52;;;;;;;3.10;1.40;;;22.70;61.70;;;;;;5057986;28;20052;-65
2022/07/11 12:47:07;;;;;;;5.45;2.38;;;22.60;61.80;;;;;;5053950;28;20049;-65
2022/07/11 12:49:34;;;;;;;3.58;1.98;;;22.60;61.90;;;;;;5059296;28;20098;-64
2022/07/11 12:52:04;;;;;;;2.65;1.27;;;22.60;62.00;;;;;;5060260;28;20049;-64
2022/07/11 12:54:33;;;;;;;3.10;1.20;;;22.60;61.90;;;;;;5056970;28;20518;-63
2022/07/11 12:57:02;;;;;;;2.78;1.10;;;22.60;61.50;;;;;;5059111;28;20053;-65
2022/07/11 12:59:31;;;;;;;2.42;1.00;;;22.50;61.50;;;;;;5059351;28;20150;-65
2022/07/11 13:02:00;;;;;;;1.80;0.80;;;22.50;61.40;;;;;;5058553;28;20061;-64
2022/07/11 13:04:39;;;;;;;2.05;0.90;;;22.50;61.30;;;;;;5050435;28;20068;-63